createdAt,value
2023-04-18T00:01:47.646Z,100010.53
2023-04-18T00:04:19.232Z,100006.13
2023-04-18T00:06:49.687Z,100005.41
2023-04-18T00:09:17.864Z,100000.00
2023-04-18T00:11:46.365Z,100009.28
2023-04-18T00:14:14.811Z,100008.44
2023-04-18T00:16:43.328Z,100011.28
2023-04-18T00:19:11.437Z,100011.44
2023-04-18T00:21:45.019Z,100010.59
2023-04-18T00:24:13.615Z,100017.97
2023-04-18T00:26:42.188Z,100023.53
2023-04-18T00:29:11.591Z,100012.72
2023-04-18T00:31:39.749Z,100013.72
2023-04-18T00:34:07.783Z,100014.06
2023-04-18T00:36:35.848Z,100021.16
2023-04-18T00:39:08.494Z,100022.31
2023-04-18T00:41:36.580Z,100021.47
2023-04-18T00:44:04.702Z,100018.03
2023-04-18T00:46:32.880Z,100017.34
2023-04-18T00:49:01.051Z,100018.34
2023-04-18T00:51:29.460Z,100019.19
2023-04-18T00:53:57.794Z,100012.25
2023-04-18T00:56:27.554Z,100023.06
2023-04-18T00:58:55.750Z,100009.56
2023-04-18T01:01:23.989Z,100018.66
2023-04-18T01:03:52.271Z,100011.56
2023-04-18T01:06:20.580Z,100009.97
2023-04-18T01:08:48.887Z,100013.53
2023-04-18T01:11:17.484Z,100009.13
2023-04-18T01:13:59.696Z,100009.28
2023-04-18T01:16:28.753Z,100003.34
2023-04-18T01:18:57.090Z,100007.75
2023-04-18T01:21:26.911Z,100012.47
2023-04-18T01:23:55.259Z,100007.06
2023-04-18T01:26:24.718Z,100003.66
2023-04-18T01:28:53.145Z,100006.38
2023-04-18T01:31:21.443Z,100007.34
2023-04-18T01:33:49.510Z,100011.03
2023-04-18T01:36:17.618Z,100008.34
2023-04-18T01:38:45.714Z,100000.53
2023-04-18T01:41:14.144Z,100004.25
2023-04-18T01:43:43.589Z,100002.56
2023-04-18T01:46:11.771Z,100006.09
2023-04-18T01:48:40.326Z,100008.94
2023-04-18T01:51:08.486Z,99999.00
2023-04-18T01:53:36.480Z,100002.81
2023-04-18T01:56:04.755Z,100004.66
2023-04-18T01:58:32.866Z,100006.66
2023-04-18T02:01:02.495Z,100007.34
2023-04-18T02:03:30.949Z,100008.50
2023-04-18T02:05:59.278Z,100008.50
2023-04-18T02:08:27.504Z,100013.22
2023-04-18T02:10:56.244Z,100006.81
2023-04-18T02:13:24.501Z,100008.81
2023-04-18T02:15:52.555Z,100011.53
2023-04-18T02:18:22.099Z,100008.13
2023-04-18T02:20:51.406Z,100010.81
2023-04-18T02:23:20.283Z,100017.22
2023-04-18T02:25:48.456Z,100015.50
2023-04-18T02:28:16.683Z,100015.50
2023-04-18T02:30:44.902Z,100011.09
2023-04-18T02:33:13.517Z,100012.09
2023-04-18T02:35:42.996Z,100015.81
2023-04-18T02:38:17.751Z,100010.56
2023-04-18T02:40:46.124Z,100016.81
2023-04-18T02:43:14.282Z,100008.00
2023-04-18T02:45:42.499Z,100018.81
2023-04-18T02:48:10.742Z,100011.72
2023-04-18T02:50:39.217Z,100017.97
2023-04-18T02:53:08.875Z,100027.06
2023-04-18T02:55:37.801Z,100020.81
2023-04-18T02:58:06.658Z,100019.09
2023-04-18T03:00:36.098Z,100021.09
2023-04-18T03:03:04.238Z,100020.09
2023-04-18T03:05:32.872Z,100021.09
2023-04-18T03:08:00.979Z,100026.50
2023-04-18T03:10:31.194Z,100022.09
2023-04-18T03:12:59.280Z,100020.72
2023-04-18T03:15:28.425Z,100033.91
2023-04-18T03:17:57.462Z,100032.19
2023-04-18T03:20:26.632Z,100030.66
2023-04-18T03:22:55.038Z,100032.50
2023-04-18T03:25:23.142Z,100032.50
2023-04-18T03:27:52.664Z,100037.91
2023-04-18T03:30:21.536Z,100036.22
2023-04-18T03:32:50.011Z,100037.19
2023-04-18T03:35:18.334Z,100036.22
2023-04-18T03:37:46.469Z,100034.47
2023-04-18T03:40:15.726Z,100037.34
2023-04-18T03:42:44.146Z,100035.47
2023-04-18T03:45:13.793Z,100036.63
2023-04-18T03:47:41.946Z,100030.69
2023-04-18T03:50:10.770Z,100042.88
2023-04-18T03:52:38.945Z,100049.28
2023-04-18T03:55:10.207Z,100049.28
2023-04-18T03:57:38.868Z,100045.03
2023-04-18T04:00:09.091Z,100046.75
2023-04-18T04:02:38.950Z,100053.13
2023-04-18T04:05:07.493Z,100047.75
2023-04-18T04:07:36.202Z,100060.38
2023-04-18T04:10:04.496Z,100055.25
2023-04-18T04:12:32.681Z,100062.22
2023-04-18T04:15:00.947Z,100060.66
2023-04-18T04:17:29.055Z,100058.25
2023-04-18T04:19:58.776Z,100066.06
2023-04-18T04:22:27.303Z,100068.75
2023-04-18T04:24:57.779Z,100074.31
2023-04-18T04:27:26.900Z,100068.22
2023-04-18T04:29:56.536Z,100078.84
2023-04-18T04:32:25.313Z,100078.00
2023-04-18T04:34:53.649Z,100073.59
2023-04-18T04:37:23.798Z,100074.44
2023-04-18T04:39:52.331Z,100085.25
2023-04-18T04:42:25.356Z,100081.16
2023-04-18T04:44:54.428Z,100084.56
2023-04-18T04:47:22.563Z,100084.69
2023-04-18T04:49:53.546Z,100087.41
2023-04-18T04:52:23.042Z,100079.41
2023-04-18T04:54:52.763Z,100084.81
2023-04-18T04:57:20.854Z,100083.97
2023-04-18T04:59:48.964Z,100087.53
2023-04-18T05:02:17.119Z,100089.38
2023-04-18T05:04:45.515Z,100090.50
2023-04-18T05:07:14.963Z,100088.53
2023-04-18T05:09:44.446Z,100092.22
2023-04-18T05:12:12.495Z,100092.22
2023-04-18T05:14:40.495Z,100094.22
2023-04-18T05:17:08.667Z,100099.63
2023-04-18T05:19:37.302Z,100096.91
2023-04-18T05:22:05.526Z,100091.66
2023-04-18T05:24:33.571Z,100097.91
2023-04-18T05:27:03.480Z,100097.91
2023-04-18T05:29:32.093Z,100104.16
2023-04-18T05:32:00.294Z,100101.91
2023-04-18T05:34:31.879Z,100107.00
2023-04-18T05:37:01.500Z,100100.75
2023-04-18T05:39:29.913Z,100106.16
2023-04-18T05:41:58.447Z,100112.41
2023-04-18T05:44:28.175Z,100109.72
2023-04-18T05:46:56.292Z,100119.50
2023-04-18T05:49:24.613Z,100114.09
2023-04-18T05:51:53.034Z,100115.97
2023-04-18T05:54:22.035Z,100113.25
2023-04-18T05:56:50.255Z,100111.41
2023-04-18T05:59:18.720Z,100116.09
2023-04-18T06:01:49.355Z,100105.31
2023-04-18T06:04:18.024Z,100111.41
2023-04-18T06:06:46.656Z,100114.97
2023-04-18T06:09:14.788Z,100120.50
2023-04-18T06:11:42.924Z,100124.91
2023-04-18T06:14:11.002Z,100126.59
2023-04-18T06:16:39.221Z,100114.97
2023-04-18T06:19:08.732Z,100127.44
2023-04-18T06:21:36.933Z,100121.22
2023-04-18T06:24:05.996Z,100128.31
2023-04-18T06:26:34.327Z,100127.44
2023-04-18T06:29:02.623Z,100128.31
2023-04-18T06:31:31.274Z,100128.31
2023-04-18T06:33:59.452Z,100132.72
2023-04-18T06:36:29.160Z,100131.00
2023-04-18T06:38:57.244Z,100134.41
2023-04-18T06:41:25.628Z,100137.09
2023-04-18T06:44:03.306Z,100138.81
2023-04-18T06:46:32.862Z,100137.84
2023-04-18T06:49:01.013Z,100129.00
2023-04-18T06:51:32.443Z,100140.53
2023-04-18T06:54:00.738Z,100135.84
2023-04-18T06:56:29.698Z,100136.00
2023-04-18T06:58:57.819Z,100142.94
2023-04-18T07:01:26.033Z,100134.84
2023-04-18T07:03:54.680Z,100139.25
2023-04-18T07:06:23.032Z,100138.25
2023-04-18T07:08:54.422Z,100142.66
2023-04-18T07:11:23.558Z,100142.66
2023-04-18T07:13:51.700Z,100143.34
2023-04-18T07:16:21.196Z,100141.66
2023-04-18T07:18:49.430Z,100145.06
2023-04-18T07:21:17.656Z,100143.34
2023-04-18T07:23:46.729Z,100151.31
2023-04-18T07:26:16.278Z,100149.47
2023-04-18T07:28:44.525Z,100137.94
2023-04-18T07:31:14.520Z,100153.88
2023-04-18T07:33:43.354Z,100150.19
2023-04-18T07:36:11.843Z,100156.44
2023-04-18T07:38:40.203Z,100158.97
2023-04-18T07:41:09.358Z,100162.69
2023-04-18T07:43:40.445Z,100160.69
2023-04-18T07:46:10.515Z,100159.84
2023-04-18T07:48:38.879Z,100165.06
2023-04-18T07:51:07.042Z,100161.69
2023-04-18T07:53:35.909Z,100171.22
2023-04-18T07:56:04.136Z,100167.63
2023-04-18T07:58:32.552Z,100168.63
2023-04-18T08:01:02.264Z,100172.91
2023-04-18T08:03:30.766Z,100179.16
2023-04-18T08:05:59.608Z,100177.31
2023-04-18T08:08:28.048Z,100180.72
2023-04-18T08:10:56.164Z,100179.72
2023-04-18T08:13:24.256Z,100183.28
2023-04-18T08:15:52.477Z,100182.28
2023-04-18T08:18:23.045Z,100175.00
2023-04-18T08:20:51.926Z,100179.41
2023-04-18T08:23:20.069Z,100177.44
2023-04-18T08:25:48.451Z,100174.75
2023-04-18T08:28:16.992Z,100175.44
2023-04-18T08:30:48.775Z,100178.16
2023-04-18T08:33:17.029Z,100183.41
2023-04-18T08:35:46.773Z,100187.66
2023-04-18T08:38:18.012Z,100181.41
2023-04-18T08:40:47.153Z,100182.97
2023-04-18T08:43:16.140Z,100188.34
2023-04-18T08:45:45.174Z,100186.38
2023-04-18T08:48:14.213Z,100187.09
2023-04-18T08:50:42.792Z,100191.50
2023-04-18T08:53:12.855Z,100186.09
2023-04-18T08:55:42.032Z,100184.09
2023-04-18T08:58:12.456Z,100184.94
2023-04-18T09:00:40.675Z,100186.63
2023-04-18T09:03:09.235Z,100183.78
2023-04-18T09:05:38.504Z,100185.53
2023-04-18T09:08:25.186Z,100191.78
2023-04-18T09:10:53.271Z,100191.66
2023-04-18T09:13:41.084Z,100181.69
2023-04-18T09:16:09.487Z,100181.41
2023-04-18T09:18:38.491Z,100181.53
2023-04-18T09:21:19.407Z,100180.25
2023-04-18T09:23:50.385Z,100189.09
2023-04-18T09:26:33.866Z,100185.38
2023-04-18T09:29:03.239Z,100196.72
2023-04-18T09:31:31.378Z,100190.47
2023-04-18T09:34:00.762Z,100186.63
2023-04-18T09:36:29.037Z,100186.47
2023-04-18T09:38:58.549Z,100189.91
2023-04-18T09:41:27.578Z,100184.19
2023-04-18T09:44:14.523Z,100178.78
2023-04-18T09:46:46.050Z,100182.19
2023-04-18T09:49:15.670Z,100185.47
2023-04-18T09:51:46.093Z,100184.47
2023-04-18T09:54:17.362Z,100186.16
2023-04-18T09:56:46.929Z,100181.31
2023-04-18T09:59:21.261Z,100178.59
2023-04-18T10:01:50.964Z,100177.44
2023-04-18T10:04:19.915Z,100176.47
2023-04-18T10:06:48.210Z,100170.91
2023-04-18T10:09:18.820Z,100161.66
2023-04-18T10:11:47.203Z,100168.75
2023-04-18T10:14:17.405Z,100170.31
2023-04-18T10:16:48.640Z,100170.31
2023-04-18T10:19:24.680Z,100169.03
2023-04-18T10:21:54.436Z,100164.63
2023-04-18T10:24:49.471Z,100170.41
2023-04-18T10:27:18.281Z,100170.09
2023-04-18T10:29:51.464Z,100167.41
2023-04-18T10:32:20.061Z,100173.53
2023-04-18T10:34:48.810Z,100181.66
2023-04-18T10:37:18.994Z,100171.53
2023-04-18T10:39:58.205Z,100169.84
2023-04-18T10:43:00.515Z,100181.03
2023-04-18T10:45:31.270Z,100169.53
2023-04-18T10:48:24.359Z,100167.22
2023-04-18T10:51:15.055Z,100168.94
2023-04-18T10:53:49.499Z,100170.63
2023-04-18T10:56:19.015Z,100169.63
2023-04-18T10:58:51.681Z,100168.47
2023-04-18T11:01:31.721Z,100167.63
2023-04-18T11:04:01.613Z,100170.00
2023-04-18T11:06:31.321Z,100159.19
2023-04-18T11:09:12.449Z,100161.63
2023-04-18T11:11:42.541Z,100166.03
2023-04-18T11:14:10.811Z,100164.00
2023-04-18T11:16:38.998Z,100166.72
2023-04-18T11:19:27.980Z,100165.72
2023-04-18T11:22:02.056Z,100169.09
2023-04-18T11:24:30.663Z,100169.84
2023-04-18T11:27:00.527Z,100172.53
2023-04-18T11:29:28.873Z,100167.13
2023-04-18T11:31:58.625Z,100172.22
2023-04-18T11:34:33.232Z,100172.22
2023-04-18T11:37:01.587Z,100169.53
2023-04-18T11:39:29.845Z,100172.94
2023-04-18T11:42:01.410Z,100169.22
2023-04-18T11:44:30.930Z,100167.38
2023-04-18T11:46:59.105Z,100170.94
2023-04-18T11:49:28.409Z,100174.50
2023-04-18T11:51:56.984Z,100163.81
2023-04-18T11:54:41.208Z,100171.66
2023-04-18T11:57:21.704Z,100165.41
2023-04-18T11:59:53.039Z,100165.25
2023-04-18T12:02:22.405Z,100153.69
2023-04-18T12:04:53.106Z,100157.81
2023-04-18T12:07:38.102Z,100156.81
2023-04-18T12:10:08.577Z,100158.50
2023-04-18T12:12:37.715Z,100156.66
2023-04-18T12:15:10.030Z,100158.19
2023-04-18T12:17:39.074Z,100159.91
2023-04-18T12:20:09.934Z,100162.63
2023-04-18T12:22:40.006Z,100162.47
2023-04-18T12:25:20.248Z,100165.03
2023-04-18T12:27:57.906Z,100166.72
2023-04-18T12:30:30.400Z,100164.00
2023-04-18T12:33:02.857Z,100154.88
2023-04-18T12:35:32.324Z,100163.00
2023-04-18T12:38:02.184Z,100165.56
2023-04-18T12:40:31.170Z,100155.72
2023-04-18T12:43:00.537Z,100166.41
2023-04-18T12:45:31.747Z,100162.69
2023-04-18T12:48:00.005Z,100166.41
2023-04-18T12:50:28.749Z,100166.41
2023-04-18T12:53:01.505Z,100159.84
2023-04-18T12:55:30.154Z,100159.97
2023-04-18T12:57:58.591Z,100158.97
2023-04-18T13:00:28.368Z,100150.25
2023-04-18T13:02:58.031Z,100152.63
2023-04-18T13:05:31.594Z,100153.03
2023-04-18T13:10:36.177Z,100160.91
2023-04-18T13:13:04.454Z,100149.78
2023-04-18T13:15:33.079Z,100165.94
2023-04-18T13:18:06.208Z,100163.78
2023-04-18T13:20:35.165Z,100161.44
2023-04-18T13:23:03.486Z,100153.72
2023-04-18T13:25:31.912Z,100160.50
2023-04-18T13:28:00.959Z,100158.47
2023-04-18T13:30:29.756Z,100162.44
2023-04-18T13:32:58.717Z,100163.84
2023-04-18T13:35:28.199Z,100163.06
2023-04-18T13:37:58.067Z,100160.72
2023-04-18T13:40:26.553Z,100152.28
2023-04-18T13:42:54.772Z,100163.34
2023-04-18T13:45:25.471Z,100160.97
2023-04-18T13:47:53.982Z,100165.78
2023-04-18T13:50:23.179Z,100164.31
2023-04-18T13:52:54.541Z,100154.66
2023-04-18T13:55:22.791Z,100153.34
2023-04-18T13:57:51.034Z,100156.22
2023-04-18T14:00:20.415Z,100155.75
2023-04-18T14:02:48.838Z,100145.44
2023-04-18T14:05:17.161Z,100160.91
2023-04-18T14:07:45.416Z,100159.53
2023-04-18T14:10:14.911Z,100158.94
2023-04-18T14:12:43.051Z,100148.59
2023-04-18T14:15:12.172Z,100148.97
2023-04-18T14:17:40.337Z,100139.31
2023-04-18T14:20:09.541Z,100143.41
2023-04-18T14:22:37.734Z,100142.72
2023-04-18T14:25:06.820Z,100145.97
2023-04-18T14:27:36.287Z,100144.63
2023-04-18T14:30:06.494Z,100148.00
2023-04-18T14:32:35.391Z,100139.56
2023-04-18T14:35:07.125Z,100136.34
2023-04-18T14:37:35.488Z,100144.31
2023-04-18T14:40:05.467Z,100150.56
2023-04-18T14:42:36.687Z,100150.75
2023-04-18T14:45:08.385Z,100154.31
2023-04-18T14:47:39.078Z,100145.69
2023-04-18T14:50:08.776Z,100150.94
2023-04-18T14:52:37.138Z,100150.78
2023-04-18T14:55:05.715Z,100157.59
2023-04-18T14:57:35.925Z,100150.13
2023-04-18T15:00:04.886Z,100158.75
2023-04-18T15:02:34.812Z,100154.84
2023-04-18T15:05:03.697Z,100148.44
2023-04-18T15:07:31.949Z,100148.75
2023-04-18T15:10:00.142Z,100146.72
2023-04-18T15:12:28.216Z,100147.25
2023-04-18T15:14:56.412Z,100150.13
2023-04-18T15:17:24.477Z,100149.81
2023-04-18T15:19:53.918Z,100148.78
2023-04-18T15:22:22.215Z,100140.63
2023-04-18T15:24:50.358Z,100151.72
2023-04-18T15:27:18.550Z,100140.00
2023-04-18T15:29:49.412Z,100147.63
2023-04-18T15:32:18.033Z,100151.84
2023-04-18T15:34:46.144Z,100155.25
2023-04-18T15:37:15.661Z,100140.69
2023-04-18T15:39:43.767Z,100145.75
2023-04-18T15:42:11.772Z,100149.16
2023-04-18T15:44:39.878Z,100155.44
2023-04-18T15:47:07.960Z,100157.66
2023-04-18T15:49:36.009Z,100153.91
2023-04-18T15:52:06.308Z,100154.59
2023-04-18T15:54:35.789Z,100153.56
2023-04-18T15:57:04.260Z,100153.22
2023-04-18T15:59:32.406Z,100155.25
2023-04-18T16:02:00.891Z,100159.50
2023-04-18T16:04:29.163Z,100167.66
2023-04-18T16:06:57.408Z,100160.53
2023-04-18T16:09:25.716Z,100163.41
2023-04-18T16:11:56.181Z,100159.00
2023-04-18T16:14:24.284Z,100162.06
2023-04-18T16:16:53.720Z,100162.25
2023-04-18T16:19:21.829Z,100170.53
2023-04-18T16:21:50.166Z,100170.88
2023-04-18T16:24:18.232Z,100170.03
2023-04-18T16:26:46.387Z,100167.50
2023-04-18T16:29:16.125Z,100169.53
2023-04-18T16:31:44.554Z,100166.28
2023-04-18T16:34:12.935Z,100168.16
2023-04-18T16:36:41.155Z,100172.06
2023-04-18T16:39:09.366Z,100177.69
2023-04-18T16:41:37.531Z,100175.13
2023-04-18T16:44:06.289Z,100172.59
2023-04-18T16:46:35.779Z,100166.63
2023-04-18T16:49:04.019Z,100168.63
2023-04-18T16:51:32.294Z,100176.97
2023-04-18T16:54:00.456Z,100184.44
2023-04-18T16:56:28.577Z,100178.28
2023-04-18T16:58:56.824Z,100182.03
2023-04-18T17:01:25.046Z,100183.38
2023-04-18T17:03:55.291Z,100181.69
2023-04-18T17:06:25.094Z,100185.75
2023-04-18T17:08:53.726Z,100189.47
2023-04-18T17:11:22.276Z,100189.81
2023-04-18T17:13:51.239Z,100187.28
2023-04-18T17:16:19.456Z,100189.31
2023-04-18T17:18:47.548Z,100186.06
2023-04-18T17:21:17.001Z,100189.78
2023-04-18T17:23:45.080Z,100189.28
2023-04-18T17:26:13.185Z,100185.03
2023-04-18T17:28:41.513Z,100185.34
2023-04-18T17:31:09.641Z,100184.69
2023-04-18T17:33:37.768Z,100186.72
2023-04-18T17:36:06.851Z,100197.75
2023-04-18T17:38:36.414Z,100196.19
2023-04-18T17:41:05.725Z,100202.63
2023-04-18T17:43:33.822Z,100199.41
2023-04-18T17:46:03.637Z,100201.44
2023-04-18T17:48:32.009Z,100201.56
2023-04-18T17:51:00.236Z,100205.66
2023-04-18T17:53:29.684Z,100209.53
2023-04-18T17:56:01.097Z,100207.84
2023-04-18T17:58:29.676Z,100210.03
2023-04-18T18:00:57.962Z,100209.34
2023-04-18T18:03:26.310Z,100215.09
2023-04-18T18:05:55.283Z,100218.81
2023-04-18T18:08:24.300Z,100220.81
2023-04-18T18:10:52.405Z,100228.28
2023-04-18T18:13:22.090Z,100220.47
2023-04-18T18:15:50.470Z,100225.19
2023-04-18T18:18:18.587Z,100224.47
2023-04-18T18:20:46.773Z,100226.00
2023-04-18T18:23:15.320Z,100224.13
2023-04-18T18:25:43.385Z,100231.56
2023-04-18T18:28:11.609Z,100230.91
2023-04-18T18:30:41.120Z,100229.50
2023-04-18T18:33:09.337Z,100230.50
2023-04-18T18:35:37.806Z,100238.13
2023-04-18T18:38:06.429Z,100236.28
2023-04-18T18:40:34.669Z,100235.72
2023-04-18T18:43:03.239Z,100240.47
2023-04-18T18:45:31.344Z,100236.03
2023-04-18T18:48:00.882Z,100248.91
2023-04-18T18:50:29.044Z,100240.94
2023-04-18T18:52:57.314Z,100252.09
2023-04-18T18:55:25.544Z,100248.69
2023-04-18T18:57:54.778Z,100249.72
2023-04-18T19:00:23.014Z,100258.84
2023-04-18T19:02:51.509Z,100264.44
2023-04-18T19:05:21.195Z,100261.16
2023-04-18T19:07:51.359Z,100273.88
2023-04-18T19:10:19.824Z,100277.75
2023-04-18T19:12:48.150Z,100285.03
2023-04-18T19:15:16.590Z,100292.50
2023-04-18T19:17:44.769Z,100290.06
2023-04-18T19:20:13.019Z,100289.38
2023-04-18T19:22:42.605Z,100286.84
2023-04-18T19:25:11.299Z,100299.53
2023-04-18T19:27:39.428Z,100303.41
2023-04-18T19:30:10.667Z,100296.28
2023-04-18T19:32:39.008Z,100298.28
2023-04-18T19:35:09.867Z,100302.00
2023-04-18T19:37:38.100Z,100299.47
2023-04-18T19:40:09.363Z,100299.63
2023-04-18T19:42:37.612Z,100300.94
2023-04-18T19:45:06.996Z,100290.72
2023-04-18T19:47:35.203Z,100314.50
2023-04-18T19:50:03.384Z,100312.06
2023-04-18T19:52:31.584Z,100314.94
2023-04-18T19:54:59.975Z,100310.53
2023-04-18T19:57:29.726Z,100318.81
2023-04-18T20:00:01.433Z,100311.88
2023-04-18T20:02:30.011Z,100323.56
2023-04-18T20:04:58.556Z,100307.59
2023-04-18T20:07:26.892Z,100318.59
2023-04-18T20:09:56.392Z,100315.16
2023-04-18T20:12:24.843Z,100317.84
2023-04-18T20:14:58.497Z,100318.00
2023-04-18T20:17:27.611Z,100317.31
2023-04-18T20:19:57.128Z,100315.59
2023-04-18T20:22:26.779Z,100311.19
2023-04-18T20:24:57.257Z,100316.75
2023-04-18T20:27:25.905Z,100308.94
2023-04-18T20:29:57.472Z,100311.66
2023-04-18T20:32:26.750Z,100306.41
2023-04-18T20:34:54.994Z,100304.69
2023-04-18T20:37:23.154Z,100305.72
2023-04-18T20:39:52.865Z,100308.53
2023-04-18T20:42:21.110Z,100308.69
2023-04-18T20:44:49.159Z,100314.28
2023-04-18T20:47:18.743Z,100315.44
2023-04-18T20:49:46.990Z,100312.72
2023-04-18T20:52:15.583Z,100317.47
2023-04-18T20:54:43.624Z,100323.72
2023-04-18T20:57:11.681Z,100316.72
2023-04-18T20:59:39.903Z,100321.44
2023-04-18T21:02:10.699Z,100317.91
2023-04-18T21:04:40.694Z,100323.47
2023-04-18T21:07:08.881Z,100321.78
2023-04-18T21:09:37.451Z,100314.66
2023-04-18T21:12:07.701Z,100317.50
2023-04-18T21:14:42.256Z,100306.97
2023-04-18T21:17:10.853Z,100308.81
2023-04-18T21:19:40.358Z,100304.41
2023-04-18T21:22:08.492Z,100310.84
2023-04-18T21:24:36.588Z,100302.88
2023-04-18T21:27:05.080Z,100306.59
2023-04-18T21:29:33.298Z,100304.88
2023-04-18T21:32:01.656Z,100299.59
2023-04-18T21:34:31.769Z,100299.75
2023-04-18T21:37:01.452Z,100300.91
2023-04-18T21:39:29.701Z,100296.50
2023-04-18T21:41:58.087Z,100300.22
2023-04-18T21:44:26.216Z,100287.84
2023-04-18T21:46:54.268Z,100291.41
2023-04-18T21:49:25.731Z,100294.25
2023-04-18T21:51:54.998Z,100294.25
2023-04-18T21:54:24.633Z,100296.41
2023-04-18T21:56:52.685Z,100294.00
2023-04-18T21:59:21.034Z,100290.31
2023-04-18T22:01:49.091Z,100291.31
2023-04-18T22:04:21.153Z,100295.72
2023-04-18T22:06:49.384Z,100293.00
2023-04-18T22:09:19.290Z,100286.91
2023-04-18T22:11:48.967Z,100279.78
2023-04-18T22:14:17.720Z,100283.47
2023-04-18T22:16:46.041Z,100283.47
2023-04-18T22:19:14.898Z,100281.75
2023-04-18T22:21:43.085Z,100288.19
2023-04-18T22:24:11.261Z,100278.38
2023-04-18T22:26:39.467Z,100276.66
2023-04-18T22:29:09.072Z,100273.25
2023-04-18T22:31:37.195Z,100284.94
2023-04-18T22:34:05.729Z,100269.00
2023-04-18T22:36:33.768Z,100266.16
2023-04-18T22:39:01.869Z,100269.00
2023-04-18T22:41:29.912Z,100263.59
2023-04-18T22:43:58.005Z,100267.28
2023-04-18T22:46:28.049Z,100264.72
2023-04-18T22:48:56.953Z,100260.16
2023-04-18T22:51:25.273Z,100253.06
2023-04-18T22:53:53.557Z,100250.50
2023-04-18T22:56:21.570Z,100254.22
2023-04-18T22:58:49.634Z,100255.06
2023-04-18T23:01:17.769Z,100245.41
2023-04-18T23:03:47.595Z,100243.69
2023-04-18T23:06:16.079Z,100240.28
2023-04-18T23:08:44.269Z,100242.00
2023-04-18T23:11:12.412Z,100237.56
2023-04-18T23:13:40.506Z,100234.84
2023-04-18T23:16:09.717Z,100229.75
2023-04-18T23:18:38.434Z,100236.03
2023-04-18T23:21:08.420Z,100235.16
2023-04-18T23:23:36.541Z,100222.63
2023-04-18T23:26:14.057Z,100226.31
2023-04-18T23:28:42.689Z,100221.91
2023-04-18T23:31:11.680Z,100220.22
2023-04-18T23:33:42.756Z,100215.81
2023-04-18T23:36:12.943Z,100206.00
2023-04-18T23:38:41.215Z,100211.41
2023-04-18T23:41:09.452Z,100198.84
2023-04-18T23:43:37.516Z,100205.28
2023-04-18T23:46:06.027Z,100199.16
2023-04-18T23:48:34.162Z,100196.47
2023-04-18T23:51:02.651Z,100192.06
2023-04-18T23:53:32.612Z,100190.38
2023-04-18T23:56:00.833Z,100190.53
2023-04-18T23:58:29.095Z,100191.38
